sensor_id;sensor_type;location;lat;lon;timestamp;pressure;altitude;pressure_sealevel;temperature;humidity
19128;BME280;9696;53.686;10.094;2023-03-15T00:01:30;100438.75;;;0.80;100.00
19128;BME280;9696;53.686;10.094;2023-03-15T00:03:59;100447.38;;;0.96;100.00
19128;BME280;9696;53.686;10.094;2023-03-15T00:06:28;100441.88;;;0.86;100.00
19128;BME280;9696;53.686;10.094;2023-03-15T00:09:00;100456.13;;;0.93;100.00
19128;BME280;9696;53.686;10.094;2023-03-15T00:11:30;100450.28;;;0.90;100.00
19128;BME280;9696;53.686;10.094;2023-03-15T00:14:00;100455.59;;;0.87;100.00
19128;BME280;9696;53.686;10.094;2023-03-15T00:16:30;100464.84;;;0.91;100.00
19128;BME280;9696;53.686;10.094;2023-03-15T00:18:59;100472.47;;;0.94;100.00
19128;BME280;9696;53.686;10.094;2023-03-15T00:21:28;100479.59;;;0.89;100.00
19128;BME280;9696;53.686;10.094;2023-03-15T00:23:57;100479.97;;;0.99;100.00
19128;BME280;9696;53.686;10.094;2023-03-15T00:26:27;100480.22;;;0.94;100.00
19128;BME280;9696;53.686;10.094;2023-03-15T00:28:56;100478.81;;;1.04;100.00
19128;BME280;9696;53.686;10.094;2023-03-15T00:31:26;100486.94;;;0.97;100.00
19128;BME280;9696;53.686;10.094;2023-03-15T00:33:55;100494.41;;;1.03;100.00
19128;BME280;9696;53.686;10.094;2023-03-15T00:36:25;100495.53;;;0.97;100.00
19128;BME280;9696;53.686;10.094;2023-03-15T00:38:55;100503.44;;;0.94;100.00
19128;BME280;9696;53.686;10.094;2023-03-15T00:41:24;100507.44;;;1.00;100.00
19128;BME280;9696;53.686;10.094;2023-03-15T00:43:54;100502.97;;;1.03;100.00
19128;BME280;9696;53.686;10.094;2023-03-15T00:46:23;100511.25;;;0.92;100.00
19128;BME280;9696;53.686;10.094;2023-03-15T00:48:53;100518.63;;;1.00;100.00
19128;BME280;9696;53.686;10.094;2023-03-15T00:51:23;100510.25;;;0.95;100.00
19128;BME280;9696;53.686;10.094;2023-03-15T00:53:52;100509.56;;;0.91;100.00
19128;BME280;9696;53.686;10.094;2023-03-15T00:56:25;100515.81;;;0.87;100.00
19128;BME280;9696;53.686;10.094;2023-03-15T00:58:59;100525.22;;;0.88;100.00
19128;BME280;9696;53.686;10.094;2023-03-15T01:01:30;100517.41;;;0.90;100.00
19128;BME280;9696;53.686;10.094;2023-03-15T01:04:00;100515.41;;;0.95;100.00
19128;BME280;9696;53.686;10.094;2023-03-15T01:06:30;100524.31;;;0.89;100.00
19128;BME280;9696;53.686;10.094;2023-03-15T01:08:59;100523.94;;;0.97;100.00
19128;BME280;9696;53.686;10.094;2023-03-15T01:11:29;100529.56;;;0.88;100.00
19128;BME280;9696;53.686;10.094;2023-03-15T01:13:59;100523.25;;;0.93;100.00
19128;BME280;9696;53.686;10.094;2023-03-15T01:16:31;100519.53;;;0.82;100.00
19128;BME280;9696;53.686;10.094;2023-03-15T01:19:01;100527.75;;;0.90;100.00
19128;BME280;9696;53.686;10.094;2023-03-15T01:21:31;100524.84;;;0.96;100.00
19128;BME280;9696;53.686;10.094;2023-03-15T01:24:00;100528.03;;;0.84;100.00
19128;BME280;9696;53.686;10.094;2023-03-15T01:26:29;100539.44;;;0.97;100.00
19128;BME280;9696;53.686;10.094;2023-03-15T01:28:58;100531.06;;;0.92;100.00
19128;BME280;9696;53.686;10.094;2023-03-15T01:31:28;100533.13;;;0.85;100.00
19128;BME280;9696;53.686;10.094;2023-03-15T01:33:58;100537.06;;;0.92;100.00
19128;BME280;9696;53.686;10.094;2023-03-15T01:36:33;100540.50;;;0.93;100.00
19128;BME280;9696;53.686;10.094;2023-03-15T01:39:02;100541.41;;;0.92;100.00
19128;BME280;9696;53.686;10.094;2023-03-15T01:41:40;100539.03;;;1.05;100.00
19128;BME280;9696;53.686;10.094;2023-03-15T01:44:12;100551.06;;;1.06;100.00
19128;BME280;9696;53.686;10.094;2023-03-15T01:46:43;100551.72;;;1.09;100.00
19128;BME280;9696;53.686;10.094;2023-03-15T01:49:21;100549.75;;;0.97;100.00
19128;BME280;9696;53.686;10.094;2023-03-15T01:51:57;100558.34;;;0.98;100.00
19128;BME280;9696;53.686;10.094;2023-03-15T01:54:42;100564.78;;;0.89;100.00
19128;BME280;9696;53.686;10.094;2023-03-15T01:57:17;100568.38;;;0.86;100.00
19128;BME280;9696;53.686;10.094;2023-03-15T01:59:51;100571.31;;;0.96;100.00
19128;BME280;9696;53.686;10.094;2023-03-15T02:02:23;100576.19;;;1.02;100.00
19128;BME280;9696;53.686;10.094;2023-03-15T02:04:58;100582.50;;;0.97;100.00
19128;BME280;9696;53.686;10.094;2023-03-15T02:07:32;100575.56;;;0.97;100.00
19128;BME280;9696;53.686;10.094;2023-03-15T02:10:05;100582.03;;;0.88;100.00
19128;BME280;9696;53.686;10.094;2023-03-15T02:12:39;100577.53;;;0.92;100.00
19128;BME280;9696;53.686;10.094;2023-03-15T02:15:10;100581.94;;;1.07;100.00
19128;BME280;9696;53.686;10.094;2023-03-15T02:17:42;100591.91;;;0.98;100.00
19128;BME280;9696;53.686;10.094;2023-03-15T02:20:22;100588.16;;;1.03;100.00
19128;BME280;9696;53.686;10.094;2023-03-15T02:22:59;100584.47;;;1.09;100.00
19128;BME280;9696;53.686;10.094;2023-03-15T02:25:36;100598.06;;;1.12;100.00
19128;BME280;9696;53.686;10.094;2023-03-15T02:28:11;100598.91;;;1.13;100.00
19128;BME280;9696;53.686;10.094;2023-03-15T02:30:43;100607.47;;;1.13;100.00
19128;BME280;9696;53.686;10.094;2023-03-15T02:33:16;100622.06;;;1.14;100.00
19128;BME280;9696;53.686;10.094;2023-03-15T02:35:47;100608.16;;;1.17;100.00
19128;BME280;9696;53.686;10.094;2023-03-15T02:38:16;100628.53;;;1.06;100.00
19128;BME280;9696;53.686;10.094;2023-03-15T02:40:46;100611.88;;;1.11;100.00
19128;BME280;9696;53.686;10.094;2023-03-15T02:43:19;100623.53;;;1.03;100.00
19128;BME280;9696;53.686;10.094;2023-03-15T02:45:53;100619.56;;;1.13;100.00
19128;BME280;9696;53.686;10.094;2023-03-15T02:48:23;100622.06;;;1.14;100.00
19128;BME280;9696;53.686;10.094;2023-03-15T02:50:53;100627.38;;;1.11;100.00
19128;BME280;9696;53.686;10.094;2023-03-15T02:53:22;100641.50;;;1.04;100.00
19128;BME280;9696;53.686;10.094;2023-03-15T02:55:51;100647.53;;;1.22;100.00
19128;BME280;9696;53.686;10.094;2023-03-15T02:58:22;100654.66;;;1.17;100.00
19128;BME280;9696;53.686;10.094;2023-03-15T03:00:52;100648.13;;;1.10;100.00
19128;BME280;9696;53.686;10.094;2023-03-15T03:03:21;100652.66;;;1.05;100.00
19128;BME280;9696;53.686;10.094;2023-03-15T03:05:50;100654.19;;;1.09;100.00
19128;BME280;9696;53.686;10.094;2023-03-15T03:08:19;100667.56;;;1.17;100.00
19128;BME280;9696;53.686;10.094;2023-03-15T03:10:48;100666.28;;;1.25;100.00
19128;BME280;9696;53.686;10.094;2023-03-15T03:13:17;100678.13;;;1.12;100.00
19128;BME280;9696;53.686;10.094;2023-03-15T03:15:50;100692.50;;;1.18;100.00
19128;BME280;9696;53.686;10.094;2023-03-15T03:18:29;100684.81;;;1.16;100.00
19128;BME280;9696;53.686;10.094;2023-03-15T03:20:59;100691.66;;;1.17;100.00
19128;BME280;9696;53.686;10.094;2023-03-15T03:23:28;100700.94;;;1.21;100.00
19128;BME280;9696;53.686;10.094;2023-03-15T03:25:58;100701.22;;;1.15;100.00
19128;BME280;9696;53.686;10.094;2023-03-15T03:28:29;100715.66;;;1.19;100.00
19128;BME280;9696;53.686;10.094;2023-03-15T03:31:02;100713.75;;;1.06;100.00
19128;BME280;9696;53.686;10.094;2023-03-15T03:33:32;100718.69;;;1.10;100.00
19128;BME280;9696;53.686;10.094;2023-03-15T03:36:01;100726.75;;;1.21;100.00
19128;BME280;9696;53.686;10.094;2023-03-15T03:38:32;100729.78;;;1.12;100.00
19128;BME280;9696;53.686;10.094;2023-03-15T03:41:02;100736.41;;;1.18;100.00
19128;BME280;9696;53.686;10.094;2023-03-15T03:43:32;100732.78;;;1.22;100.00
19128;BME280;9696;53.686;10.094;2023-03-15T03:46:04;100729.94;;;1.09;100.00
19128;BME280;9696;53.686;10.094;2023-03-15T03:48:37;100742.25;;;1.21;100.00
19128;BME280;9696;53.686;10.094;2023-03-15T03:51:07;100749.56;;;1.30;100.00
19128;BME280;9696;53.686;10.094;2023-03-15T03:53:36;100751.81;;;1.19;100.00
19128;BME280;9696;53.686;10.094;2023-03-15T03:56:06;100758.22;;;1.29;100.00
19128;BME280;9696;53.686;10.094;2023-03-15T03:58:36;100765.69;;;1.35;100.00
19128;BME280;9696;53.686;10.094;2023-03-15T04:01:27;100766.41;;;1.20;100.00
19128;BME280;9696;53.686;10.094;2023-03-15T04:03:56;100760.97;;;1.08;100.00
19128;BME280;9696;53.686;10.094;2023-03-15T04:06:25;100765.72;;;1.17;100.00
19128;BME280;9696;53.686;10.094;2023-03-15T04:08:55;100761.72;;;1.28;100.00
19128;BME280;9696;53.686;10.094;2023-03-15T04:11:32;100756.16;;;1.19;100.00
19128;BME280;9696;53.686;10.094;2023-03-15T04:14:07;100771.06;;;1.31;100.00
19128;BME280;9696;53.686;10.094;2023-03-15T04:16:38;100778.97;;;1.28;100.00
19128;BME280;9696;53.686;10.094;2023-03-15T04:19:09;100775.16;;;1.18;100.00
19128;BME280;9696;53.686;10.094;2023-03-15T04:21:40;100781.75;;;1.23;100.00
19128;BME280;9696;53.686;10.094;2023-03-15T04:24:39;100783.75;;;1.18;100.00
19128;BME280;9696;53.686;10.094;2023-03-15T04:27:12;100787.16;;;1.00;100.00
19128;BME280;9696;53.686;10.094;2023-03-15T04:29:59;100791.94;;;0.90;100.00
19128;BME280;9696;53.686;10.094;2023-03-15T04:32:59;100794.22;;;0.78;100.00
19128;BME280;9696;53.686;10.094;2023-03-15T04:35:44;100797.72;;;0.77;100.00
19128;BME280;9696;53.686;10.094;2023-03-15T04:38:33;100798.59;;;0.76;100.00
19128;BME280;9696;53.686;10.094;2023-03-15T04:41:37;100808.38;;;0.88;100.00
19128;BME280;9696;53.686;10.094;2023-03-15T04:44:39;100810.34;;;0.83;100.00
19128;BME280;9696;53.686;10.094;2023-03-15T04:47:16;100813.13;;;0.78;100.00
19128;BME280;9696;53.686;10.094;2023-03-15T04:49:54;100805.44;;;0.77;100.00
19128;BME280;9696;53.686;10.094;2023-03-15T04:52:49;100807.41;;;0.72;100.00
19128;BME280;9696;53.686;10.094;2023-03-15T04:55:37;100813.09;;;0.60;100.00
19128;BME280;9696;53.686;10.094;2023-03-15T04:58:21;100809.06;;;0.73;100.00
19128;BME280;9696;53.686;10.094;2023-03-15T05:01:28;100813.75;;;0.65;100.00
19128;BME280;9696;53.686;10.094;2023-03-15T05:04:16;100814.53;;;0.67;100.00
19128;BME280;9696;53.686;10.094;2023-03-15T05:06:49;100821.13;;;0.54;100.00
19128;BME280;9696;53.686;10.094;2023-03-15T05:09:31;100818.19;;;0.42;100.00
19128;BME280;9696;53.686;10.094;2023-03-15T05:12:25;100832.47;;;0.50;100.00
19128;BME280;9696;53.686;10.094;2023-03-15T05:15:26;100831.25;;;0.58;100.00
19128;BME280;9696;53.686;10.094;2023-03-15T05:18:03;100840.16;;;0.51;100.00
19128;BME280;9696;53.686;10.094;2023-03-15T05:20:43;100846.72;;;0.58;100.00
19128;BME280;9696;53.686;10.094;2023-03-15T05:23:34;100860.03;;;0.49;100.00
19128;BME280;9696;53.686;10.094;2023-03-15T05:26:18;100851.00;;;0.59;100.00
19128;BME280;9696;53.686;10.094;2023-03-15T05:29:05;100862.03;;;0.63;100.00
19128;BME280;9696;53.686;10.094;2023-03-15T05:32:10;100876.06;;;0.76;100.00
19128;BME280;9696;53.686;10.094;2023-03-15T05:35:09;100890.13;;;0.69;100.00
19128;BME280;9696;53.686;10.094;2023-03-15T05:38:04;100886.25;;;0.79;100.00
19128;BME280;9696;53.686;10.094;2023-03-15T05:40:59;100889.03;;;0.74;100.00
19128;BME280;9696;53.686;10.094;2023-03-15T05:43:47;100898.25;;;0.60;100.00
19128;BME280;9696;53.686;10.094;2023-03-15T05:46:33;100904.25;;;0.60;100.00
19128;BME280;9696;53.686;10.094;2023-03-15T05:49:05;100899.47;;;0.71;100.00
19128;BME280;9696;53.686;10.094;2023-03-15T05:51:39;100909.38;;;0.62;100.00
19128;BME280;9696;53.686;10.094;2023-03-15T05:54:41;100918.09;;;0.59;100.00
19128;BME280;9696;53.686;10.094;2023-03-15T05:57:20;100922.97;;;0.65;100.00
19128;BME280;9696;53.686;10.094;2023-03-15T06:00:13;100926.03;;;0.75;100.00
19128;BME280;9696;53.686;10.094;2023-03-15T06:02:44;100927.88;;;0.71;100.00
19128;BME280;9696;53.686;10.094;2023-03-15T06:05:37;100934.13;;;0.86;100.00
19128;BME280;9696;53.686;10.094;2023-03-15T06:08:12;100941.09;;;0.84;100.00
19128;BME280;9696;53.686;10.094;2023-03-15T06:10:45;100942.13;;;0.80;100.00
19128;BME280;9696;53.686;10.094;2023-03-15T06:13:16;100943.47;;;0.88;100.00
19128;BME280;9696;53.686;10.094;2023-03-15T06:15:46;100947.56;;;0.74;100.00
19128;BME280;9696;53.686;10.094;2023-03-15T06:18:18;100955.13;;;0.78;100.00
19128;BME280;9696;53.686;10.094;2023-03-15T06:20:49;100948.59;;;0.70;100.00
19128;BME280;9696;53.686;10.094;2023-03-15T06:23:19;100950.72;;;0.80;100.00
19128;BME280;9696;53.686;10.094;2023-03-15T06:25:49;100953.09;;;1.05;100.00
19128;BME280;9696;53.686;10.094;2023-03-15T06:28:21;100959.53;;;0.95;100.00
19128;BME280;9696;53.686;10.094;2023-03-15T06:30:55;100963.59;;;1.21;100.00
19128;BME280;9696;53.686;10.094;2023-03-15T06:33:32;100976.56;;;1.19;100.00
19128;BME280;9696;53.686;10.094;2023-03-15T06:36:01;100981.50;;;1.05;100.00
19128;BME280;9696;53.686;10.094;2023-03-15T06:38:30;100975.88;;;1.34;100.00
19128;BME280;9696;53.686;10.094;2023-03-15T06:41:00;100980.66;;;1.05;100.00
19128;BME280;9696;53.686;10.094;2023-03-15T06:43:31;100981.81;;;1.18;100.00
19128;BME280;9696;53.686;10.094;2023-03-15T06:46:00;100985.28;;;1.17;100.00
19128;BME280;9696;53.686;10.094;2023-03-15T06:48:31;100985.31;;;1.54;100.00
19128;BME280;9696;53.686;10.094;2023-03-15T06:51:01;100987.50;;;1.63;100.00
19128;BME280;9696;53.686;10.094;2023-03-15T06:53:32;100992.38;;;1.88;100.00
19128;BME280;9696;53.686;10.094;2023-03-15T06:56:01;100988.13;;;1.87;100.00
19128;BME280;9696;53.686;10.094;2023-03-15T06:58:32;100995.94;;;1.48;100.00
19128;BME280;9696;53.686;10.094;2023-03-15T07:01:01;101000.34;;;1.83;100.00
19128;BME280;9696;53.686;10.094;2023-03-15T07:03:30;101001.03;;;1.87;100.00
19128;BME280;9696;53.686;10.094;2023-03-15T07:05:59;101006.19;;;1.70;100.00
19128;BME280;9696;53.686;10.094;2023-03-15T07:08:28;101011.41;;;1.68;100.00
19128;BME280;9696;53.686;10.094;2023-03-15T07:10:57;101016.78;;;1.64;100.00
19128;BME280;9696;53.686;10.094;2023-03-15T07:13:26;101040.59;;;1.70;100.00
19128;BME280;9696;53.686;10.094;2023-03-15T07:15:57;101072.06;;;1.80;100.00
19128;BME280;9696;53.686;10.094;2023-03-15T07:18:26;101101.63;;;1.54;100.00
19128;BME280;9696;53.686;10.094;2023-03-15T07:20:55;101106.69;;;1.17;100.00
19128;BME280;9696;53.686;10.094;2023-03-15T07:23:25;101105.78;;;0.98;100.00
19128;BME280;9696;53.686;10.094;2023-03-15T07:25:55;101108.56;;;0.93;100.00
19128;BME280;9696;53.686;10.094;2023-03-15T07:28:25;101105.13;;;0.92;100.00
19128;BME280;9696;53.686;10.094;2023-03-15T07:30:57;101101.66;;;0.93;100.00
19128;BME280;9696;53.686;10.094;2023-03-15T07:33:30;101102.84;;;1.07;100.00
19128;BME280;9696;53.686;10.094;2023-03-15T07:36:03;101104.44;;;1.09;100.00
19128;BME280;9696;53.686;10.094;2023-03-15T07:38:33;101113.78;;;1.12;100.00
19128;BME280;9696;53.686;10.094;2023-03-15T07:41:04;101114.78;;;1.09;100.00
19128;BME280;9696;53.686;10.094;2023-03-15T07:43:37;101118.13;;;1.31;100.00
19128;BME280;9696;53.686;10.094;2023-03-15T07:46:14;101121.81;;;1.26;100.00
19128;BME280;9696;53.686;10.094;2023-03-15T07:48:43;101117.50;;;1.26;100.00
19128;BME280;9696;53.686;10.094;2023-03-15T07:51:12;101116.91;;;1.20;100.00
19128;BME280;9696;53.686;10.094;2023-03-15T07:53:41;101115.63;;;1.30;100.00
19128;BME280;9696;53.686;10.094;2023-03-15T07:56:10;101106.19;;;1.09;100.00
19128;BME280;9696;53.686;10.094;2023-03-15T07:58:39;101112.06;;;1.32;100.00
19128;BME280;9696;53.686;10.094;2023-03-15T08:01:09;101111.59;;;1.23;100.00
19128;BME280;9696;53.686;10.094;2023-03-15T08:03:39;101109.34;;;1.35;100.00
19128;BME280;9696;53.686;10.094;2023-03-15T08:06:09;101102.19;;;1.22;100.00
19128;BME280;9696;53.686;10.094;2023-03-15T08:08:38;101104.81;;;1.20;100.00
19128;BME280;9696;53.686;10.094;2023-03-15T08:11:08;101104.97;;;1.37;100.00
19128;BME280;9696;53.686;10.094;2023-03-15T08:13:37;101103.19;;;1.58;100.00
19128;BME280;9696;53.686;10.094;2023-03-15T08:16:07;101107.56;;;1.76;100.00
19128;BME280;9696;53.686;10.094;2023-03-15T08:18:36;101103.50;;;1.71;100.00
19128;BME280;9696;53.686;10.094;2023-03-15T08:21:07;101099.47;;;2.03;100.00
19128;BME280;9696;53.686;10.094;2023-03-15T08:23:36;101098.00;;;2.16;100.00
19128;BME280;9696;53.686;10.094;2023-03-15T08:26:05;101108.09;;;2.94;100.00
19128;BME280;9696;53.686;10.094;2023-03-15T08:28:34;101116.34;;;2.66;100.00
19128;BME280;9696;53.686;10.094;2023-03-15T08:31:06;101114.03;;;3.30;100.00
19128;BME280;9696;53.686;10.094;2023-03-15T08:33:35;101124.94;;;3.54;100.00
19128;BME280;9696;53.686;10.094;2023-03-15T08:36:06;101127.53;;;3.02;100.00
19128;BME280;9696;53.686;10.094;2023-03-15T08:38:35;101123.06;;;3.73;100.00
19128;BME280;9696;53.686;10.094;2023-03-15T08:41:05;101130.56;;;3.45;100.00
19128;BME280;9696;53.686;10.094;2023-03-15T08:43:34;101142.63;;;3.63;100.00
19128;BME280;9696;53.686;10.094;2023-03-15T08:46:03;101156.03;;;3.71;100.00
19128;BME280;9696;53.686;10.094;2023-03-15T08:48:32;101157.34;;;3.45;100.00
19128;BME280;9696;53.686;10.094;2023-03-15T08:51:02;101158.47;;;3.74;100.00
19128;BME280;9696;53.686;10.094;2023-03-15T08:53:33;101163.13;;;4.00;100.00
19128;BME280;9696;53.686;10.094;2023-03-15T08:56:02;101165.44;;;4.06;100.00
19128;BME280;9696;53.686;10.094;2023-03-15T08:58:31;101167.31;;;4.67;100.00
19128;BME280;9696;53.686;10.094;2023-03-15T09:01:01;101185.47;;;5.44;100.00
19128;BME280;9696;53.686;10.094;2023-03-15T09:03:31;101189.03;;;4.02;100.00
19128;BME280;9696;53.686;10.094;2023-03-15T09:06:01;101212.19;;;3.02;100.00
19128;BME280;9696;53.686;10.094;2023-03-15T09:08:31;101209.53;;;2.49;100.00
19128;BME280;9696;53.686;10.094;2023-03-15T09:11:01;101207.09;;;2.25;100.00
19128;BME280;9696;53.686;10.094;2023-03-15T09:13:30;101213.09;;;2.07;100.00
19128;BME280;9696;53.686;10.094;2023-03-15T09:15:59;101208.66;;;2.29;100.00
19128;BME280;9696;53.686;10.094;2023-03-15T09:18:30;101220.69;;;2.30;100.00
19128;BME280;9696;53.686;10.094;2023-03-15T09:21:00;101216.78;;;2.41;100.00
19128;BME280;9696;53.686;10.094;2023-03-15T09:23:29;101211.38;;;2.26;100.00
19128;BME280;9696;53.686;10.094;2023-03-15T09:26:00;101209.84;;;2.41;100.00
19128;BME280;9696;53.686;10.094;2023-03-15T09:28:29;101221.25;;;2.74;100.00
19128;BME280;9696;53.686;10.094;2023-03-15T09:30:59;101215.03;;;2.78;100.00
19128;BME280;9696;53.686;10.094;2023-03-15T09:33:31;101222.84;;;2.77;100.00
19128;BME280;9696;53.686;10.094;2023-03-15T09:36:01;101218.03;;;2.69;100.00
19128;BME280;9696;53.686;10.094;2023-03-15T09:41:00;101206.16;;;3.01;100.00
19128;BME280;9696;53.686;10.094;2023-03-15T09:43:55;101210.25;;;3.24;100.00
19128;BME280;9696;53.686;10.094;2023-03-15T09:46:29;101213.00;;;3.21;100.00
19128;BME280;9696;53.686;10.094;2023-03-15T09:49:06;101204.44;;;3.88;100.00
19128;BME280;9696;53.686;10.094;2023-03-15T09:51:40;101217.06;;;4.44;100.00
19128;BME280;9696;53.686;10.094;2023-03-15T09:54:17;101222.44;;;4.41;100.00
19128;BME280;9696;53.686;10.094;2023-03-15T09:56:53;101221.84;;;4.03;100.00
19128;BME280;9696;53.686;10.094;2023-03-15T09:59:29;101230.19;;;3.75;100.00
19128;BME280;9696;53.686;10.094;2023-03-15T10:02:03;101225.47;;;3.83;100.00
19128;BME280;9696;53.686;10.094;2023-03-15T10:04:43;101227.03;;;4.36;100.00
19128;BME280;9696;53.686;10.094;2023-03-15T10:07:15;101231.06;;;3.91;100.00
19128;BME280;9696;53.686;10.094;2023-03-15T10:09:45;101239.78;;;3.39;100.00
19128;BME280;9696;53.686;10.094;2023-03-15T10:12:20;101240.56;;;4.25;100.00
19128;BME280;9696;53.686;10.094;2023-03-15T10:15:02;101242.63;;;3.86;100.00
19128;BME280;9696;53.686;10.094;2023-03-15T10:17:41;101235.53;;;3.89;100.00
19128;BME280;9696;53.686;10.094;2023-03-15T10:20:14;101246.28;;;3.47;100.00
19128;BME280;9696;53.686;10.094;2023-03-15T10:22:53;101226.47;;;3.63;100.00
19128;BME280;9696;53.686;10.094;2023-03-15T10:25:26;101237.34;;;4.37;100.00
19128;BME280;9696;53.686;10.094;2023-03-15T10:27:59;101228.09;;;4.32;100.00
19128;BME280;9696;53.686;10.094;2023-03-15T10:30:31;101229.38;;;5.64;100.00
19128;BME280;9696;53.686;10.094;2023-03-15T10:33:03;101219.97;;;5.32;100.00
19128;BME280;9696;53.686;10.094;2023-03-15T10:35:34;101227.13;;;4.34;100.00
19128;BME280;9696;53.686;10.094;2023-03-15T10:38:13;101228.41;;;4.10;100.00
19128;BME280;9696;53.686;10.094;2023-03-15T10:40:45;101232.22;;;4.36;100.00
19128;BME280;9696;53.686;10.094;2023-03-15T10:43:21;101230.69;;;4.32;100.00
19128;BME280;9696;53.686;10.094;2023-03-15T10:46:01;101232.53;;;5.69;100.00
19128;BME280;9696;53.686;10.094;2023-03-15T10:48:32;101229.50;;;5.17;100.00
19128;BME280;9696;53.686;10.094;2023-03-15T10:51:05;101225.25;;;5.30;100.00
19128;BME280;9696;53.686;10.094;2023-03-15T10:53:35;101233.16;;;5.29;100.00
19128;BME280;9696;53.686;10.094;2023-03-15T10:56:06;101241.00;;;4.97;100.00
19128;BME280;9696;53.686;10.094;2023-03-15T10:58:45;101249.41;;;3.88;100.00
19128;BME280;9696;53.686;10.094;2023-03-15T11:01:29;101247.72;;;3.36;100.00
19128;BME280;9696;53.686;10.094;2023-03-15T11:04:12;101252.25;;;3.66;100.00
19128;BME280;9696;53.686;10.094;2023-03-15T11:06:45;101247.19;;;3.80;100.00
19128;BME280;9696;53.686;10.094;2023-03-15T11:09:16;101241.97;;;4.63;100.00
19128;BME280;9696;53.686;10.094;2023-03-15T11:11:56;101254.78;;;4.51;100.00
19128;BME280;9696;53.686;10.094;2023-03-15T11:14:33;101253.28;;;5.70;100.00
19128;BME280;9696;53.686;10.094;2023-03-15T11:17:04;101256.84;;;5.54;100.00
19128;BME280;9696;53.686;10.094;2023-03-15T11:19:38;101247.56;;;5.80;100.00
19128;BME280;9696;53.686;10.094;2023-03-15T11:22:11;101261.66;;;6.05;100.00
19128;BME280;9696;53.686;10.094;2023-03-15T11:24:41;101258.81;;;6.38;100.00
19128;BME280;9696;53.686;10.094;2023-03-15T11:27:13;101267.00;;;6.75;100.00
19128;BME280;9696;53.686;10.094;2023-03-15T11:29:46;101264.16;;;5.77;100.00
19128;BME280;9696;53.686;10.094;2023-03-15T11:32:18;101267.97;;;5.72;100.00
19128;BME280;9696;53.686;10.094;2023-03-15T11:34:54;101268.31;;;5.20;100.00
19128;BME280;9696;53.686;10.094;2023-03-15T11:37:27;101271.16;;;5.31;100.00
19128;BME280;9696;53.686;10.094;2023-03-15T11:40:02;101288.88;;;4.78;100.00
19128;BME280;9696;53.686;10.094;2023-03-15T11:42:43;101285.25;;;4.80;100.00
19128;BME280;9696;53.686;10.094;2023-03-15T11:45:20;101308.56;;;4.66;100.00
19128;BME280;9696;53.686;10.094;2023-03-15T11:47:54;101319.97;;;3.24;100.00
19128;BME280;9696;53.686;10.094;2023-03-15T11:50:24;101327.63;;;3.27;100.00
19128;BME280;9696;53.686;10.094;2023-03-15T11:52:54;101308.91;;;2.83;100.00
19128;BME280;9696;53.686;10.094;2023-03-15T11:55:25;101305.28;;;3.06;100.00
19128;BME280;9696;53.686;10.094;2023-03-15T11:57:56;101314.91;;;3.21;100.00
19128;BME280;9696;53.686;10.094;2023-03-15T12:00:48;101307.84;;;3.25;100.00
19128;BME280;9696;53.686;10.094;2023-03-15T12:03:32;101308.78;;;4.11;100.00
19128;BME280;9696;53.686;10.094;2023-03-15T12:06:08;101314.19;;;4.74;100.00
19128;BME280;9696;53.686;10.094;2023-03-15T12:08:45;101305.16;;;5.28;100.00
19128;BME280;9696;53.686;10.094;2023-03-15T12:11:40;101307.09;;;6.30;100.00
19128;BME280;9696;53.686;10.094;2023-03-15T12:14:26;101302.66;;;6.32;100.00
19128;BME280;9696;53.686;10.094;2023-03-15T12:20:21;101306.88;;;7.18;100.00
19128;BME280;9696;53.686;10.094;2023-03-15T12:23:18;101309.34;;;6.64;100.00
19128;BME280;9696;53.686;10.094;2023-03-15T12:25:53;101307.22;;;6.71;100.00
19128;BME280;9696;53.686;10.094;2023-03-15T12:28:27;101297.84;;;7.50;100.00
19128;BME280;9696;53.686;10.094;2023-03-15T12:30:59;101294.41;;;6.09;100.00
19128;BME280;9696;53.686;10.094;2023-03-15T12:33:31;101300.88;;;7.30;100.00
19128;BME280;9696;53.686;10.094;2023-03-15T12:36:08;101299.19;;;6.74;100.00
19128;BME280;9696;53.686;10.094;2023-03-15T12:38:40;101293.28;;;7.13;100.00
19128;BME280;9696;53.686;10.094;2023-03-15T12:41:36;101291.00;;;7.47;100.00
19128;BME280;9696;53.686;10.094;2023-03-15T12:44:26;101298.59;;;7.65;100.00
19128;BME280;9696;53.686;10.094;2023-03-15T12:47:05;101293.38;;;7.11;100.00
19128;BME280;9696;53.686;10.094;2023-03-15T12:49:39;101300.91;;;7.16;100.00
19128;BME280;9696;53.686;10.094;2023-03-15T12:52:37;101321.53;;;7.06;100.00
19128;BME280;9696;53.686;10.094;2023-03-15T12:55:14;101306.81;;;6.77;100.00
19128;BME280;9696;53.686;10.094;2023-03-15T12:57:47;101303.06;;;7.09;100.00
19128;BME280;9696;53.686;10.094;2023-03-15T13:00:19;101313.47;;;8.79;100.00
19128;BME280;9696;53.686;10.094;2023-03-15T13:02:51;101311.38;;;8.59;100.00
19128;BME280;9696;53.686;10.094;2023-03-15T13:05:27;101313.63;;;8.00;100.00
19128;BME280;9696;53.686;10.094;2023-03-15T13:08:14;101314.47;;;8.01;100.00
19128;BME280;9696;53.686;10.094;2023-03-15T13:10:56;101310.84;;;7.77;100.00
19128;BME280;9696;53.686;10.094;2023-03-15T13:13:52;101318.63;;;7.91;100.00
19128;BME280;9696;53.686;10.094;2023-03-15T13:16:30;101312.09;;;8.23;100.00
19128;BME280;9696;53.686;10.094;2023-03-15T13:19:13;101325.69;;;8.28;100.00
19128;BME280;9696;53.686;10.094;2023-03-15T13:22:03;101316.00;;;8.68;100.00
19128;BME280;9696;53.686;10.094;2023-03-15T13:24:47;101324.34;;;8.73;100.00
19128;BME280;9696;53.686;10.094;2023-03-15T13:27:30;101324.13;;;7.86;100.00
19128;BME280;9696;53.686;10.094;2023-03-15T13:30:23;101326.03;;;8.62;100.00
19128;BME280;9696;53.686;10.094;2023-03-15T13:33:07;101325.78;;;8.77;100.00
19128;BME280;9696;53.686;10.094;2023-03-15T13:35:48;101328.25;;;7.64;100.00